INFORMACIÓN METAR y TAF
METAR FOR GMMX
ADDS - METARS form results

(0656 UTC 24 January 2019)
Data provider http://aviationweather.gov/metar/data/
 
METAR text: GMMX 240630Z 07006KT 8000 NSC 05/05 Q1017 NOSIG
Conditions at: GMMX (MARRAKECH/MENARA, MA) observed 0630 UTC 24 January 2019
Temperature: 5.0°C (41°F)
Dewpoint: 5.0°C (41°F) [RH = 100%]
Pressure (altimeter): 30.03 inches Hg (1017.0 mb)
Winds: from the ENE (70 degrees) at 7 MPH (6 knots; 3.1 m/s)
Visibility: 5 miles ( 8 km)
Ceiling: at least 12,000 feet AGL
Clouds: sky clear below 12,000 feet AGL
Weather: no significant weather observed at this time

METAR text: GMMX 240600Z 08006KT 8000 NSC 06/05 Q1017 NOSIG
Conditions at: GMMX (MARRAKECH/MENARA, MA) observed 0600 UTC 24 January 2019
Temperature: 6.0°C (43°F)
Dewpoint: 5.0°C (41°F) [RH = 93%]
Pressure (altimeter): 30.03 inches Hg (1017.0 mb)
Winds: from the E (80 degrees) at 7 MPH (6 knots; 3.1 m/s)
Visibility: 5 miles ( 8 km)
Ceiling: at least 12,000 feet AGL
Clouds: sky clear below 12,000 feet AGL
Weather: no significant weather observed at this time

Forecast for: GMMX (MARRAKECH/MENARA, MA)
Text: TAF GMMX 240500Z 2406/2512 06006KT 8000 NSC
Forecast period: 0600 UTC 24 January 2019 to 1200 UTC 25 January 2019
Forecast type: FROM: standard forecast or significant change
Winds: from the ENE (60 degrees) at 7 MPH (6 knots; 3.1 m/s)
Visibility: 5 miles (8 km)
Ceiling: unknown
Clouds: missing
Weather: no significant weather forecast for this period

 MAPA DE AEROPUERTO

 INFORMACIÓN DE PISTA
Pista 10 Longitud 10170 ft Ancho 148 ft
Elevación 1506 ft Umbral desplazado 918 ft Rumbo de pista 96
Pista 28 Longitud 10170 ft Ancho 148 ft
Elevación 1545 ft Umbral desplazado 0 ft Rumbo de pista 276

 FRECUANCIAS DEL AEROPUERTO
Tipo APP Nombre MARRAKECH Frecuencia 119.7 MHZ
Tipo TWR Nombre MARRAKECH Frecuencia 118.7 MHZ

 RADIO AYUDAS DEL AEROPUERTO
Tipo NDB Nombre Marrakech Frecuencia 267 KHZ
Tipo VOR-DME Nombre Marrakech Frecuencia 113300 KHZ



Powered by Virtual Airlines Manager [v2.6.2]